createdAt,value
2016-08-25T00:00:15.727Z,1040.52
2016-08-25T00:01:15.726Z,1040.51
2016-08-25T00:02:15.721Z,1040.53
2016-08-25T00:03:15.720Z,1040.53
2016-08-25T00:04:16.647Z,1040.5
2016-08-25T00:05:15.714Z,1040.51
2016-08-25T00:06:16.495Z,1040.53
2016-08-25T00:07:15.710Z,1040.49
2016-08-25T00:08:15.707Z,1040.46
2016-08-25T00:09:15.704Z,1040.48
2016-08-25T00:10:15.705Z,1040.46
2016-08-25T00:11:15.708Z,1040.44
2016-08-25T00:12:15.694Z,1040.45
2016-08-25T00:13:15.691Z,1040.45
2016-08-25T00:14:15.691Z,1040.41
2016-08-25T00:15:15.687Z,1040.43
2016-08-25T00:16:15.685Z,1040.44
2016-08-25T00:17:15.681Z,1040.44
2016-08-25T00:18:15.679Z,1040.47
2016-08-25T00:19:15.678Z,1040.43
2016-08-25T00:20:15.672Z,1040.45
2016-08-25T00:21:15.672Z,1040.44
2016-08-25T00:22:15.670Z,1040.44
2016-08-25T00:23:15.665Z,1040.45
2016-08-25T00:24:15.661Z,1040.44
2016-08-25T00:25:15.673Z,1040.46
2016-08-25T00:26:15.658Z,1040.44
2016-08-25T00:27:15.653Z,1040.46
2016-08-25T00:28:15.650Z,1040.44
2016-08-25T00:29:15.647Z,1040.45
2016-08-25T00:31:15.643Z,1040.45
2016-08-25T00:32:15.640Z,1040.46
2016-08-25T00:33:15.638Z,1040.43
2016-08-25T00:34:15.634Z,1040.48
2016-08-25T00:35:16.182Z,1040.48
2016-08-25T00:36:15.629Z,1040.47
2016-08-25T00:37:15.625Z,1040.5
2016-08-25T00:38:15.621Z,1040.49
2016-08-25T00:39:15.619Z,1040.48
2016-08-25T00:40:15.616Z,1040.46
2016-08-25T00:41:15.620Z,1040.42
2016-08-25T00:42:15.617Z,1040.42
2016-08-25T00:44:16.061Z,1040.48
2016-08-25T00:45:15.601Z,1040.48
2016-08-25T00:46:15.600Z,1040.46
2016-08-25T00:47:15.596Z,1040.47
2016-08-25T00:48:15.592Z,1040.5
2016-08-25T00:49:15.589Z,1040.5
2016-08-25T00:50:15.587Z,1040.53
2016-08-25T00:51:15.584Z,1040.53
2016-08-25T00:52:15.582Z,1040.53
2016-08-25T00:53:15.579Z,1040.52
2016-08-25T00:54:15.577Z,1040.53
2016-08-25T00:55:15.574Z,1040.53
2016-08-25T00:56:15.572Z,1040.5
2016-08-25T00:57:15.568Z,1040.48
2016-08-25T00:58:15.564Z,1040.44
2016-08-25T00:59:15.561Z,1040.46
2016-08-25T01:00:15.558Z,1040.44
2016-08-25T01:01:15.556Z,1040.47
2016-08-25T01:02:15.553Z,1040.46
2016-08-25T01:03:15.551Z,1040.5
2016-08-25T01:04:15.546Z,1040.51
2016-08-25T01:05:15.543Z,1040.49
2016-08-25T01:06:15.541Z,1040.5
2016-08-25T01:07:15.537Z,1040.48
2016-08-25T01:08:15.534Z,1040.47
2016-08-25T01:09:15.533Z,1040.49
2016-08-25T01:10:15.530Z,1040.5
2016-08-25T01:11:15.527Z,1040.5
2016-08-25T01:12:15.524Z,1040.5
2016-08-25T01:13:16.515Z,1040.5
2016-08-25T01:14:15.730Z,1040.5
2016-08-25T01:15:15.518Z,1040.5
2016-08-25T01:16:15.510Z,1040.48
2016-08-25T01:17:15.509Z,1040.44
2016-08-25T01:18:15.503Z,1040.47
2016-08-25T01:19:15.502Z,1040.46
2016-08-25T01:20:15.500Z,1040.45
2016-08-25T01:21:16.814Z,1040.47
2016-08-25T01:22:15.491Z,1040.48
2016-08-25T01:23:15.489Z,1040.47
2016-08-25T01:24:15.488Z,1040.49
2016-08-25T01:25:15.482Z,1040.5
2016-08-25T01:26:15.479Z,1040.52
2016-08-25T01:27:15.477Z,1040.54
2016-08-25T01:28:15.475Z,1040.52
2016-08-25T01:29:15.471Z,1040.57
2016-08-25T01:30:15.468Z,1040.54
2016-08-25T01:31:15.466Z,1040.53
2016-08-25T01:32:15.461Z,1040.53
2016-08-25T01:33:15.457Z,1040.51
2016-08-25T01:34:15.453Z,1040.49
2016-08-25T01:35:15.451Z,1040.5
2016-08-25T01:36:15.449Z,1040.47
2016-08-25T01:37:15.445Z,1040.49
2016-08-25T01:38:15.442Z,1040.47
2016-08-25T01:39:15.439Z,1040.49
2016-08-25T01:40:15.436Z,1040.47
2016-08-25T01:41:15.432Z,1040.52
2016-08-25T01:42:15.430Z,1040.46
2016-08-25T01:43:15.426Z,1040.47
2016-08-25T01:44:15.425Z,1040.49
2016-08-25T01:45:15.419Z,1040.46
2016-08-25T01:46:15.417Z,1040.47
2016-08-25T01:47:15.414Z,1040.43
2016-08-25T01:48:15.411Z,1040.48
2016-08-25T01:49:15.409Z,1040.44
2016-08-25T01:50:15.406Z,1040.45
2016-08-25T01:51:15.401Z,1040.47
2016-08-25T01:52:15.396Z,1040.47
2016-08-25T01:53:15.394Z,1040.48
2016-08-25T01:54:15.392Z,1040.5
2016-08-25T01:55:15.388Z,1040.5
2016-08-25T01:56:15.385Z,1040.49
2016-08-25T01:57:15.383Z,1040.5
2016-08-25T01:58:15.378Z,1040.51
2016-08-25T01:59:15.376Z,1040.59
2016-08-25T02:00:15.372Z,1040.55
2016-08-25T02:01:15.369Z,1040.57
2016-08-25T02:02:15.365Z,1040.59
2016-08-25T02:03:15.363Z,1040.61
2016-08-25T02:04:15.357Z,1040.6
2016-08-25T02:05:15.355Z,1040.59
2016-08-25T02:06:15.352Z,1040.61
2016-08-25T02:07:15.349Z,1040.65
2016-08-25T02:08:15.344Z,1040.63
2016-08-25T02:09:15.342Z,1040.58
2016-08-25T02:10:15.337Z,1040.59
2016-08-25T02:11:15.333Z,1040.59
2016-08-25T02:12:15.331Z,1040.54
2016-08-25T02:13:15.329Z,1040.55
2016-08-25T02:14:15.351Z,1040.55
2016-08-25T02:15:15.320Z,1040.54
2016-08-25T02:16:15.325Z,1040.56
2016-08-25T02:17:15.316Z,1040.54
2016-08-25T02:18:15.309Z,1040.53
2016-08-25T02:19:15.307Z,1040.56
2016-08-25T02:20:15.305Z,1040.53
2016-08-25T02:21:15.301Z,1040.53
2016-08-25T02:22:15.298Z,1040.53
2016-08-25T02:23:15.295Z,1040.56
2016-08-25T02:24:15.292Z,1040.55
2016-08-25T02:25:15.288Z,1040.54
2016-08-25T02:26:15.285Z,1040.53
2016-08-25T02:27:15.280Z,1040.53
2016-08-25T02:28:15.276Z,1040.53
2016-08-25T02:29:15.273Z,1040.52
2016-08-25T02:30:16.548Z,1040.49
2016-08-25T02:31:15.268Z,1040.5
2016-08-25T02:32:15.262Z,1040.53
2016-08-25T02:33:15.860Z,1040.54
2016-08-25T02:34:15.256Z,1040.56
2016-08-25T02:35:15.266Z,1040.52
2016-08-25T02:36:15.248Z,1040.54
2016-08-25T02:37:15.245Z,1040.55
2016-08-25T02:38:15.243Z,1040.5
2016-08-25T02:39:15.238Z,1040.55
2016-08-25T02:40:15.236Z,1040.5
2016-08-25T02:41:15.233Z,1040.5
2016-08-25T02:42:15.227Z,1040.52
2016-08-25T02:43:15.224Z,1040.54
2016-08-25T02:44:15.221Z,1040.51
2016-08-25T02:45:15.217Z,1040.53
2016-08-25T02:46:15.214Z,1040.5
2016-08-25T02:47:15.210Z,1040.48
2016-08-25T02:48:15.206Z,1040.47
2016-08-25T02:49:15.201Z,1040.49
2016-08-25T02:50:15.198Z,1040.46
2016-08-25T02:51:15.194Z,1040.45
2016-08-25T02:52:15.192Z,1040.42
2016-08-25T02:53:15.187Z,1040.42
2016-08-25T02:54:15.186Z,1040.39
2016-08-25T02:55:15.183Z,1040.41
2016-08-25T02:56:15.180Z,1040.39
2016-08-25T02:57:15.175Z,1040.37
2016-08-25T02:58:15.171Z,1040.35
2016-08-25T02:59:15.166Z,1040.37
2016-08-25T03:00:15.164Z,1040.34
2016-08-25T03:01:15.161Z,1040.35
2016-08-25T03:02:15.154Z,1040.34
2016-08-25T03:03:15.154Z,1040.34
2016-08-25T03:04:15.150Z,1040.35
2016-08-25T03:05:15.143Z,1040.33
2016-08-25T03:06:15.141Z,1040.29
2016-08-25T03:07:15.139Z,1040.29
2016-08-25T03:08:15.132Z,1040.26
2016-08-25T03:09:15.682Z,1040.26
2016-08-25T03:10:15.127Z,1040.27
2016-08-25T03:11:15.122Z,1040.25
2016-08-25T03:12:15.117Z,1040.26
2016-08-25T03:13:15.114Z,1040.23
2016-08-25T03:14:15.113Z,1040.24
2016-08-25T03:15:15.106Z,1040.25
2016-08-25T03:16:15.104Z,1040.23
2016-08-25T03:17:15.101Z,1040.26
2016-08-25T03:18:15.195Z,1040.24
2016-08-25T03:19:15.092Z,1040.26
2016-08-25T03:20:15.087Z,1040.26
2016-08-25T03:21:15.534Z,1040.24
2016-08-25T03:22:15.079Z,1040.22
2016-08-25T03:23:15.076Z,1040.22
2016-08-25T03:24:15.074Z,1040.23
2016-08-25T03:25:15.070Z,1040.25
2016-08-25T03:26:15.066Z,1040.26
2016-08-25T03:27:15.060Z,1040.23
2016-08-25T03:28:15.056Z,1040.22
2016-08-25T03:29:15.056Z,1040.19
2016-08-25T03:30:15.051Z,1040.2
2016-08-25T03:31:15.046Z,1040.18
2016-08-25T03:32:15.044Z,1040.12
2016-08-25T03:33:15.038Z,1040.12
2016-08-25T03:34:15.036Z,1040.15
2016-08-25T03:35:15.032Z,1040.16
2016-08-25T03:36:15.026Z,1040.17
2016-08-25T03:37:15.023Z,1040.18
2016-08-25T03:38:15.018Z,1040.16
2016-08-25T03:39:15.015Z,1040.17
2016-08-25T03:40:15.013Z,1040.17
2016-08-25T03:41:15.006Z,1040.2
2016-08-25T03:42:15.002Z,1040.2
2016-08-25T03:43:15.001Z,1040.23
2016-08-25T03:44:14.994Z,1040.24
2016-08-25T03:45:14.989Z,1040.24
2016-08-25T03:46:14.987Z,1040.23
2016-08-25T03:48:14.983Z,1040.21
2016-08-25T03:49:14.977Z,1040.22
2016-08-25T03:50:14.973Z,1040.24
2016-08-25T03:51:14.969Z,1040.24
2016-08-25T03:52:14.963Z,1040.26
2016-08-25T03:53:14.962Z,1040.28
2016-08-25T03:54:14.955Z,1040.25
2016-08-25T03:55:14.951Z,1040.26
2016-08-25T03:56:14.947Z,1040.25
2016-08-25T03:57:16.385Z,1040.2
2016-08-25T03:58:15.025Z,1040.2
2016-08-25T03:59:15.592Z,1040.23
2016-08-25T04:00:14.932Z,1040.21
2016-08-25T04:01:14.930Z,1040.19
2016-08-25T04:02:14.925Z,1040.21
2016-08-25T04:03:15.030Z,1040.23
2016-08-25T04:04:14.917Z,1040.22
2016-08-25T04:05:14.913Z,1040.19
2016-08-25T04:06:14.908Z,1040.21
2016-08-25T04:07:14.905Z,1040.23
2016-08-25T04:08:14.901Z,1040.23
2016-08-25T04:09:14.897Z,1040.22
2016-08-25T04:10:14.893Z,1040.26
2016-08-25T04:11:14.891Z,1040.21
2016-08-25T04:12:14.886Z,1040.22
2016-08-25T04:13:14.881Z,1040.25
2016-08-25T04:14:14.878Z,1040.25
2016-08-25T04:15:14.873Z,1040.22
2016-08-25T04:16:14.870Z,1040.17
2016-08-25T04:17:14.867Z,1040.16
2016-08-25T04:18:14.865Z,1040.21
2016-08-25T04:19:14.858Z,1040.14
2016-08-25T04:20:14.856Z,1040.14
2016-08-25T04:21:14.850Z,1040.1
2016-08-25T04:22:14.845Z,1040.02
2016-08-25T04:23:14.844Z,1039.97
2016-08-25T04:24:14.837Z,1039.88
2016-08-25T04:25:14.833Z,1039.74
2016-08-25T04:26:14.829Z,1039.59
2016-08-25T04:27:14.826Z,1039.44
2016-08-25T04:28:14.971Z,1039.27
2016-08-25T04:29:15.218Z,1039.19
2016-08-25T04:30:14.816Z,1039.04
2016-08-25T04:31:14.810Z,1038.91
2016-08-25T04:32:14.809Z,1038.76
2016-08-25T04:33:14.805Z,1038.66
2016-08-25T04:34:14.802Z,1038.54
2016-08-25T04:35:14.798Z,1038.41
2016-08-25T04:36:15.446Z,1038.3
2016-08-25T04:37:14.798Z,1038.15
2016-08-25T04:38:14.990Z,1037.97
2016-08-25T04:39:14.786Z,1037.83
2016-08-25T04:40:14.782Z,1037.66
2016-08-25T04:41:14.779Z,1037.53
2016-08-25T04:42:14.778Z,1037.38
2016-08-25T04:43:14.773Z,1037.25
2016-08-25T04:44:14.772Z,1037.13
2016-08-25T04:45:14.772Z,1037.03
2016-08-25T04:46:14.769Z,1036.9
2016-08-25T04:47:14.770Z,1036.76
2016-08-25T04:48:14.767Z,1036.68
2016-08-25T04:49:14.763Z,1036.48
2016-08-25T04:50:14.762Z,1036.36
2016-08-25T04:51:14.763Z,1036.22
2016-08-25T04:52:14.762Z,1036.02
2016-08-25T04:53:14.762Z,1035.95
2016-08-25T04:54:14.758Z,1035.82
2016-08-25T04:55:14.758Z,1035.7
2016-08-25T04:56:14.759Z,1035.6
2016-08-25T04:57:14.757Z,1035.47
2016-08-25T04:58:14.758Z,1035.39
2016-08-25T04:59:14.758Z,1035.27
2016-08-25T05:00:14.760Z,1035.18
2016-08-25T05:01:14.759Z,1035.08
2016-08-25T05:02:14.761Z,1034.94
2016-08-25T05:03:14.762Z,1034.88
2016-08-25T05:04:14.767Z,1034.82
2016-08-25T05:05:14.766Z,1034.75
2016-08-25T05:06:15.852Z,1034.61
2016-08-25T05:07:14.906Z,1034.52
2016-08-25T05:08:15.845Z,1034.42
2016-08-25T05:09:14.776Z,1034.27
2016-08-25T05:10:14.780Z,1034.13
2016-08-25T05:11:14.782Z,1033.99
2016-08-25T05:12:14.785Z,1033.87
2016-08-25T05:13:14.788Z,1033.78
2016-08-25T05:14:14.794Z,1033.67
2016-08-25T05:15:14.797Z,1033.53
2016-08-25T05:16:14.800Z,1033.45
2016-08-25T05:17:14.806Z,1033.36
2016-08-25T05:18:14.811Z,1033.3
2016-08-25T05:19:14.816Z,1033.24
2016-08-25T05:20:14.824Z,1033.17
2016-08-25T05:21:14.824Z,1033.09
2016-08-25T05:22:14.832Z,1033.05
2016-08-25T05:23:14.835Z,1033.01
2016-08-25T05:24:14.842Z,1033
2016-08-25T05:25:14.849Z,1032.9
2016-08-25T05:26:14.853Z,1032.86
2016-08-25T05:27:14.860Z,1032.75
2016-08-25T05:28:14.867Z,1032.72
2016-08-25T05:29:14.872Z,1032.66
2016-08-25T05:30:14.879Z,1032.57
2016-08-25T05:31:14.885Z,1032.52
2016-08-25T05:32:14.893Z,1032.47
2016-08-25T05:33:14.899Z,1032.44
2016-08-25T05:34:14.904Z,1032.33
2016-08-25T05:35:14.911Z,1032.33
2016-08-25T05:36:14.918Z,1032.21
2016-08-25T05:37:14.929Z,1032.19
2016-08-25T05:38:14.935Z,1032.14
2016-08-25T05:39:14.944Z,1032.04
2016-08-25T05:40:14.951Z,1032
2016-08-25T05:41:14.956Z,1031.95
2016-08-25T05:42:14.971Z,1031.91
2016-08-25T05:43:14.973Z,1031.91
2016-08-25T05:44:14.983Z,1031.86
2016-08-25T05:45:14.991Z,1031.86
2016-08-25T05:46:15.248Z,1031.83
2016-08-25T05:47:15.007Z,1031.76
2016-08-25T05:48:15.015Z,1031.71
2016-08-25T05:49:15.023Z,1031.67
2016-08-25T05:50:15.031Z,1031.64
2016-08-25T05:51:15.040Z,1031.62
2016-08-25T05:52:15.050Z,1031.6
2016-08-25T05:53:15.057Z,1031.56
2016-08-25T05:54:15.068Z,1031.48
2016-08-25T05:55:15.528Z,1031.45
2016-08-25T05:56:15.084Z,1031.44
2016-08-25T05:57:15.095Z,1031.38
2016-08-25T05:58:15.104Z,1031.38
2016-08-25T05:59:15.111Z,1031.37
2016-08-25T06:00:15.123Z,1031.34
2016-08-25T06:01:15.132Z,1031.2
2016-08-25T06:02:15.140Z,1031.15
2016-08-25T06:03:15.959Z,1031.09
2016-08-25T06:04:15.160Z,1031
2016-08-25T06:05:15.170Z,1030.94
2016-08-25T06:06:15.181Z,1030.83
2016-08-25T06:07:15.190Z,1030.8
2016-08-25T06:08:15.200Z,1030.72
2016-08-25T06:09:15.215Z,1030.64
2016-08-25T06:10:15.218Z,1030.6
2016-08-25T06:11:15.228Z,1030.5
2016-08-25T06:12:15.239Z,1030.41
2016-08-25T06:13:15.250Z,1030.37
2016-08-25T06:14:15.261Z,1030.29
2016-08-25T06:15:15.273Z,1030.2
2016-08-25T06:16:15.285Z,1030.17
2016-08-25T06:17:15.293Z,1030.2
2016-08-25T06:18:15.305Z,1030.12
2016-08-25T06:19:15.315Z,1030.07
2016-08-25T06:20:15.325Z,1029.98
2016-08-25T06:21:15.335Z,1029.99
2016-08-25T06:22:15.349Z,1029.95
2016-08-25T06:23:15.360Z,1029.97
2016-08-25T06:24:15.372Z,1029.97
2016-08-25T06:25:15.380Z,1029.93
2016-08-25T06:26:15.394Z,1029.88
2016-08-25T06:27:15.404Z,1029.88
2016-08-25T06:28:15.421Z,1029.79
2016-08-25T06:29:15.426Z,1029.75
2016-08-25T06:30:15.437Z,1029.79
2016-08-25T06:31:15.450Z,1029.81
2016-08-25T06:32:15.467Z,1029.79
2016-08-25T06:35:15.497Z,1029.81
2016-08-25T06:36:15.514Z,1029.89
2016-08-25T06:37:15.521Z,1029.99
2016-08-25T06:38:15.533Z,1030.17
2016-08-25T06:39:15.552Z,1030.24
2016-08-25T06:40:15.557Z,1030.39
2016-08-25T06:41:15.576Z,1030.4
2016-08-25T06:42:15.581Z,1030.45
2016-08-25T06:43:15.599Z,1030.52
2016-08-25T06:44:15.612Z,1030.55
2016-08-25T06:45:15.624Z,1030.54
2016-08-25T06:46:15.638Z,1030.58
2016-08-25T06:47:15.648Z,1030.63
2016-08-25T06:48:15.661Z,1030.61
2016-08-25T06:49:15.673Z,1030.61
2016-08-25T06:50:15.687Z,1030.58
2016-08-25T06:51:15.697Z,1030.57
2016-08-25T06:52:15.708Z,1030.63
2016-08-25T06:53:15.721Z,1030.67
2016-08-25T06:54:15.732Z,1030.61
2016-08-25T06:55:15.740Z,1030.58
2016-08-25T06:56:15.752Z,1030.59
2016-08-25T06:57:15.764Z,1030.62
2016-08-25T06:58:15.777Z,1030.6
2016-08-25T06:59:15.789Z,1030.73
2016-08-25T07:00:15.807Z,1030.68
2016-08-25T07:01:15.820Z,1030.59
2016-08-25T07:02:16.428Z,1030.52
2016-08-25T07:03:15.839Z,1030.47
2016-08-25T07:04:15.852Z,1030.41
2016-08-25T07:05:15.873Z,1030.45
2016-08-25T07:06:15.875Z,1030.53
2016-08-25T07:07:15.895Z,1030.47
2016-08-25T07:08:15.901Z,1030.3
2016-08-25T07:09:15.914Z,1030.2
2016-08-25T07:10:15.926Z,1030.16
2016-08-25T07:11:16.245Z,1030.17
2016-08-25T07:12:15.950Z,1030.14
2016-08-25T07:13:15.963Z,1030.08
2016-08-25T07:14:15.983Z,1030.08
2016-08-25T07:15:15.990Z,1029.99
2016-08-25T07:16:16.001Z,1029.97
2016-08-25T07:17:16.020Z,1029.95
2016-08-25T07:18:16.033Z,1029.95
2016-08-25T07:19:16.045Z,1029.99
2016-08-25T07:20:16.054Z,1030
2016-08-25T07:21:16.064Z,1030.05
2016-08-25T07:22:16.077Z,1030.07
2016-08-25T07:23:16.089Z,1030.2
2016-08-25T07:24:16.102Z,1030.27
2016-08-25T07:25:16.121Z,1030.25
2016-08-25T07:26:16.130Z,1030.23
2016-08-25T07:27:16.139Z,1030.3
2016-08-25T07:28:16.153Z,1030.28
2016-08-25T07:29:16.172Z,1030.34
2016-08-25T07:30:16.178Z,1030.34
2016-08-25T07:31:16.190Z,1030.31
2016-08-25T07:32:16.203Z,1030.2
2016-08-25T07:33:16.215Z,1030.14
2016-08-25T07:34:16.227Z,1030.06
2016-08-25T07:35:16.243Z,1029.97
2016-08-25T07:36:16.258Z,1029.91
2016-08-25T07:37:16.265Z,1029.91
2016-08-25T07:38:16.284Z,1029.88
2016-08-25T07:39:16.295Z,1029.86
2016-08-25T07:40:16.303Z,1029.83
2016-08-25T07:41:16.318Z,1029.82
2016-08-25T07:42:17.017Z,1029.77
2016-08-25T07:43:17.874Z,1029.8
2016-08-25T07:44:16.361Z,1029.74
2016-08-25T07:45:16.369Z,1029.71
2016-08-25T07:46:16.385Z,1029.7
2016-08-25T07:47:17.055Z,1029.68
2016-08-25T07:48:16.411Z,1029.7
2016-08-25T07:49:16.417Z,1029.66
2016-08-25T07:50:16.436Z,1029.63
2016-08-25T07:51:16.443Z,1029.57
2016-08-25T07:52:16.811Z,1029.46
2016-08-25T07:53:16.468Z,1029.43
2016-08-25T07:54:16.481Z,1029.41
2016-08-25T07:55:16.494Z,1029.44
2016-08-25T07:56:17.102Z,1029.4
2016-08-25T07:57:16.519Z,1029.49
2016-08-25T07:58:16.532Z,1029.46
2016-08-25T07:59:16.546Z,1029.42
2016-08-25T08:00:16.558Z,1029.36
2016-08-25T08:01:16.577Z,1029.36
2016-08-25T08:02:16.586Z,1029.32
2016-08-25T08:03:16.599Z,1029.3
2016-08-25T08:04:16.609Z,1029.18
2016-08-25T08:05:16.622Z,1029.15
2016-08-25T08:06:16.635Z,1029.09
2016-08-25T08:07:16.648Z,1029.08
2016-08-25T08:08:16.662Z,1029.02
2016-08-25T08:09:16.673Z,1028.93
2016-08-25T08:10:16.687Z,1028.96
2016-08-25T08:11:16.704Z,1028.94
2016-08-25T08:12:16.713Z,1028.92
2016-08-25T08:13:16.723Z,1028.94
2016-08-25T08:14:16.737Z,1028.93
2016-08-25T08:15:16.755Z,1028.92
2016-08-25T08:16:16.763Z,1028.91
2016-08-25T08:17:16.775Z,1028.89
2016-08-25T08:18:16.787Z,1028.88
2016-08-25T08:19:16.799Z,1028.88
2016-08-25T08:20:17.513Z,1028.85
2016-08-25T08:21:16.825Z,1028.91
2016-08-25T08:22:16.843Z,1028.91
2016-08-25T08:23:16.949Z,1028.92
2016-08-25T08:24:16.861Z,1028.9
2016-08-25T08:25:16.876Z,1028.92
2016-08-25T08:26:16.898Z,1029.14
2016-08-25T08:27:16.898Z,1029.5
2016-08-25T08:28:16.911Z,1030.34
2016-08-25T08:29:17.874Z,1031.1
2016-08-25T08:30:16.935Z,1031.87
2016-08-25T08:31:16.949Z,1032.33
2016-08-25T08:32:17.611Z,1032.78
2016-08-25T08:33:16.975Z,1033.28
2016-08-25T08:34:16.983Z,1033.65
2016-08-25T08:35:16.999Z,1033.96
2016-08-25T08:36:17.003Z,1034.23
2016-08-25T08:37:17.015Z,1034.54
2016-08-25T08:38:17.028Z,1034.73
2016-08-25T08:39:17.039Z,1034.94
2016-08-25T08:40:17.043Z,1035.19
2016-08-25T08:41:17.052Z,1035.35
2016-08-25T08:42:17.060Z,1035.49
2016-08-25T08:43:17.075Z,1035.66
2016-08-25T08:44:17.076Z,1035.74
2016-08-25T08:45:17.087Z,1035.82
2016-08-25T08:46:17.093Z,1035.86
2016-08-25T08:47:17.114Z,1035.99
2016-08-25T08:48:17.110Z,1036.01
2016-08-25T08:49:17.122Z,1036.04
2016-08-25T08:50:17.125Z,1036.14
2016-08-25T08:51:17.129Z,1036.21
2016-08-25T08:52:17.142Z,1036.32
2016-08-25T08:53:17.143Z,1036.37
2016-08-25T08:54:17.151Z,1036.34
2016-08-25T08:55:17.157Z,1036.39
2016-08-25T08:56:17.167Z,1036.45
2016-08-25T08:57:17.166Z,1036.41
2016-08-25T08:58:17.173Z,1036.45
2016-08-25T08:59:17.177Z,1036.47
2016-08-25T09:00:17.535Z,1036.46
2016-08-25T09:01:18.743Z,1036.48
2016-08-25T09:02:17.193Z,1036.51
2016-08-25T09:03:17.198Z,1036.53
2016-08-25T09:04:17.205Z,1036.55
2016-08-25T09:05:17.209Z,1036.58
2016-08-25T09:06:17.213Z,1036.61
2016-08-25T09:07:17.217Z,1036.61
2016-08-25T09:08:17.223Z,1036.66
2016-08-25T09:09:17.230Z,1036.61
2016-08-25T09:10:17.813Z,1036.67
2016-08-25T09:11:17.235Z,1036.67
2016-08-25T09:12:17.251Z,1036.64
2016-08-25T09:13:17.245Z,1036.63
2016-08-25T09:14:17.248Z,1036.57
2016-08-25T09:15:17.252Z,1036.52
2016-08-25T09:16:17.258Z,1036.54
2016-08-25T09:17:17.261Z,1036.58
2016-08-25T09:18:17.264Z,1036.6
2016-08-25T09:19:17.269Z,1036.54
2016-08-25T09:20:17.279Z,1036.52
2016-08-25T09:21:17.277Z,1036.52
2016-08-25T09:22:17.283Z,1036.46
2016-08-25T09:23:17.289Z,1036.43
2016-08-25T09:24:17.287Z,1036.43
2016-08-25T09:25:17.299Z,1036.46
2016-08-25T09:26:17.296Z,1036.39
2016-08-25T09:27:17.307Z,1036.34
2016-08-25T09:28:17.309Z,1036.32
2016-08-25T09:29:17.309Z,1036.32
2016-08-25T09:30:17.312Z,1036.28
2016-08-25T09:31:17.321Z,1036.29
2016-08-25T09:32:17.319Z,1036.29
2016-08-25T09:33:17.325Z,1036.25
2016-08-25T09:34:17.330Z,1036.32
2016-08-25T09:35:17.330Z,1036.29
2016-08-25T09:36:17.342Z,1036.25
2016-08-25T09:37:17.489Z,1036.22
2016-08-25T09:38:17.353Z,1036.2
2016-08-25T09:39:17.997Z,1036.14
2016-08-25T09:40:18.056Z,1036.14
2016-08-25T09:41:17.354Z,1036.11
2016-08-25T09:42:17.357Z,1036.05
2016-08-25T09:43:17.368Z,1036.04
2016-08-25T09:44:17.376Z,1036.05
2016-08-25T09:45:17.374Z,1036.04
2016-08-25T09:46:17.375Z,1036.04
2016-08-25T09:47:17.379Z,1036.03
2016-08-25T09:48:17.431Z,1036.04
2016-08-25T09:49:17.390Z,1036.04
2016-08-25T09:50:17.394Z,1035.97
2016-08-25T09:51:17.394Z,1035.98
2016-08-25T09:52:17.402Z,1035.96
2016-08-25T09:53:17.401Z,1035.84
2016-08-25T09:54:17.403Z,1035.78
2016-08-25T09:55:17.415Z,1035.76
2016-08-25T09:56:17.410Z,1035.76
2016-08-25T09:57:17.414Z,1035.78
2016-08-25T09:58:17.421Z,1035.75
2016-08-25T09:59:17.429Z,1035.74
2016-08-25T10:00:17.434Z,1035.72
2016-08-25T10:01:17.431Z,1035.69
2016-08-25T10:02:17.436Z,1035.66
2016-08-25T10:03:17.441Z,1035.63
2016-08-25T10:04:17.441Z,1035.63
2016-08-25T10:05:17.446Z,1035.58
2016-08-25T10:06:17.452Z,1035.54
2016-08-25T10:07:17.461Z,1035.49
2016-08-25T10:08:17.457Z,1035.51
2016-08-25T10:09:17.462Z,1035.47
2016-08-25T10:10:17.469Z,1035.47
2016-08-25T10:11:17.477Z,1035.44
2016-08-25T10:12:17.476Z,1035.43
2016-08-25T10:13:17.478Z,1035.4
2016-08-25T10:14:17.482Z,1035.39
2016-08-25T10:15:17.492Z,1035.41
2016-08-25T10:16:17.492Z,1035.44
2016-08-25T10:17:17.496Z,1035.39
2016-08-25T10:18:18.198Z,1035.36
2016-08-25T10:19:17.510Z,1035.34
2016-08-25T10:20:17.568Z,1035.37
2016-08-25T10:21:17.519Z,1035.36
2016-08-25T10:22:17.518Z,1035.31
2016-08-25T10:23:17.523Z,1035.33
2016-08-25T10:24:17.530Z,1035.31
2016-08-25T10:25:17.538Z,1035.28
2016-08-25T10:26:17.541Z,1035.28
2016-08-25T10:27:17.541Z,1035.22
2016-08-25T10:28:18.817Z,1035.25
2016-08-25T10:29:17.549Z,1035.17
2016-08-25T10:30:17.552Z,1035.15
2016-08-25T10:31:18.543Z,1035.18
2016-08-25T10:32:17.568Z,1035.15
2016-08-25T10:33:17.568Z,1035.14
2016-08-25T10:34:17.571Z,1035.14
2016-08-25T10:35:17.577Z,1035.17
2016-08-25T10:36:17.582Z,1035.07
2016-08-25T10:37:17.586Z,1035.05
2016-08-25T10:38:17.590Z,1035.01
2016-08-25T10:39:17.599Z,1034.99
2016-08-25T10:40:17.601Z,1034.94
2016-08-25T10:41:17.603Z,1034.96
2016-08-25T10:42:17.607Z,1034.96
2016-08-25T10:43:17.611Z,1034.92
2016-08-25T10:44:17.615Z,1034.92
2016-08-25T10:45:17.620Z,1034.96
2016-08-25T10:46:17.631Z,1034.92
2016-08-25T10:47:17.630Z,1034.91
2016-08-25T10:48:17.633Z,1034.94
2016-08-25T10:49:17.639Z,1034.92
2016-08-25T10:50:17.651Z,1034.95
2016-08-25T10:51:17.651Z,1034.96
2016-08-25T10:52:17.651Z,1034.89
2016-08-25T10:53:17.657Z,1034.97
2016-08-25T10:54:17.662Z,1034.92
2016-08-25T10:55:18.824Z,1034.89
2016-08-25T10:56:17.670Z,1034.9
2016-08-25T10:57:17.675Z,1034.85
2016-08-25T10:58:17.681Z,1034.8
2016-08-25T10:59:17.887Z,1034.81
2016-08-25T11:00:17.695Z,1034.75
2016-08-25T11:01:17.697Z,1034.75
2016-08-25T11:02:17.700Z,1034.73
2016-08-25T11:03:17.704Z,1034.74
2016-08-25T11:05:17.714Z,1034.69
2016-08-25T11:06:17.720Z,1034.63
2016-08-25T11:07:17.722Z,1034.61
2016-08-25T11:08:17.935Z,1034.58
2016-08-25T11:09:17.889Z,1034.54
2016-08-25T11:10:17.739Z,1034.59
2016-08-25T11:11:17.744Z,1034.57
2016-08-25T11:12:17.754Z,1034.59
2016-08-25T11:13:17.754Z,1034.6
2016-08-25T11:14:17.763Z,1034.57
2016-08-25T11:15:17.764Z,1034.56
2016-08-25T11:16:17.767Z,1034.57
2016-08-25T11:17:17.770Z,1034.53
2016-08-25T11:18:17.776Z,1034.52
2016-08-25T11:19:17.781Z,1034.48
2016-08-25T11:20:17.786Z,1034.44
2016-08-25T11:21:17.790Z,1034.49
2016-08-25T11:22:17.797Z,1034.4
2016-08-25T11:23:17.802Z,1034.44
2016-08-25T11:24:17.812Z,1034.39
2016-08-25T11:25:17.816Z,1034.32
2016-08-25T11:26:17.818Z,1034.34
2016-08-25T11:27:17.820Z,1034.32
2016-08-25T11:28:17.826Z,1034.31
2016-08-25T11:29:17.836Z,1034.28
2016-08-25T11:30:17.837Z,1034.31
2016-08-25T11:31:17.842Z,1034.28
2016-08-25T11:32:17.845Z,1034.26
2016-08-25T11:33:17.849Z,1034.29
2016-08-25T11:34:17.855Z,1034.26
2016-08-25T11:35:17.860Z,1034.27
2016-08-25T11:36:18.599Z,1034.28
2016-08-25T11:37:17.870Z,1034.23
2016-08-25T11:38:18.876Z,1034.24
2016-08-25T11:39:18.891Z,1034.24
2016-08-25T11:40:17.892Z,1034.18
2016-08-25T11:41:17.897Z,1034.24
2016-08-25T11:42:17.899Z,1034.16
2016-08-25T11:43:17.901Z,1034.15
2016-08-25T11:44:17.907Z,1034.19
2016-08-25T11:45:17.912Z,1034.18
2016-08-25T11:47:18.238Z,1034.12
2016-08-25T11:48:18.618Z,1034.1
2016-08-25T11:49:17.931Z,1034.08
2016-08-25T11:50:17.939Z,1034.08
2016-08-25T11:51:17.947Z,1034.12
2016-08-25T11:52:17.947Z,1034.14
2016-08-25T11:53:17.952Z,1034.09
2016-08-25T11:54:17.959Z,1034.12
2016-08-25T11:55:17.962Z,1034.13
2016-08-25T11:56:17.967Z,1034.11
2016-08-25T11:57:17.980Z,1034.06
2016-08-25T11:58:17.985Z,1034.08
2016-08-25T11:59:17.990Z,1034.07
2016-08-25T12:00:17.992Z,1034.08
2016-08-25T12:01:17.994Z,1034.09
2016-08-25T12:02:18.000Z,1034.18
2016-08-25T12:03:18.011Z,1034.08
2016-08-25T12:04:18.013Z,1034.03
2016-08-25T12:05:18.017Z,1034.07
2016-08-25T12:06:18.021Z,1034.07
2016-08-25T12:07:18.032Z,1034.03
2016-08-25T12:08:18.030Z,1034
2016-08-25T12:09:18.037Z,1033.98
2016-08-25T12:10:18.042Z,1033.92
2016-08-25T12:11:18.052Z,1033.9
2016-08-25T12:12:18.053Z,1033.87
2016-08-25T12:14:18.064Z,1033.85
2016-08-25T12:15:18.067Z,1033.87
2016-08-25T12:16:18.085Z,1033.8